OCH weather

A L Mangham Jr. Regional Airport
Nacogdoches, Texas, United States

Public forecast

Using degrees Fahrenheit for public forecast. Weather courtesy of forecast.io.

METAR (pilot weather report)

Retrieved 2019/09/15 11:56 UTC (58 minutes ago):

KOCH 151156Z AUTO RMK AO2 SLPNO 6//// 7//// PWINO FZRANO RVRNO $

TAF (pilot weather forecast)

Closest forecast is Angelina County Airport, 20.8 nm (38.4 km) S. Retrieved 2019/09/15 12:30 UTC (24 minutes ago):

TAF KLFK 151127Z 1512/1612 VRB03KT P6SM SKC FM151800 08007KT P6SM SCT060 FM160100 08003KT P6SM SKC